Terminal Aerodrome Forecast
Issued by NWS Grand Forks, ND

Home | Current Version | Previous Version | Text Only | Print | Product List | Glossary On
Versions: 1 2 3 4 5 6 7 8 9 10 11 12 13 14 15 16 17 18
000
FTUS43 KFGF 062300
TAFFAR
TAF
KFAR 062323Z 0700/0724 10011KT P6SM OVC050
      TEMPO 0700/0702 3SM -SHRA BKN030
     FM070900 15009KT 5SM -RA OVC020
     FM071600 31018G28KT P6SM -SHRA BKN020=

USA.gov is the U.S. government's official web portal to all federal, state and local government web resources and services.